sensor_id;sensor_type;location;lat;lon;timestamp;temperature;humidity
78704;SHT31;68034;51.966;5.676;2023-04-01T00:12:57;11.9;80.7
78704;SHT31;68034;51.966;5.676;2023-04-01T00:15:57;11.9;80.9
78704;SHT31;68034;51.966;5.676;2023-04-01T00:18:57;11.9;81.2
78704;SHT31;68034;51.966;5.676;2023-04-01T00:22:01;12.0;81.3
78704;SHT31;68034;51.966;5.676;2023-04-01T00:25:09;12.0;80.9
78704;SHT31;68034;51.966;5.676;2023-04-01T00:31:10;12.0;80.7
78704;SHT31;68034;51.966;5.676;2023-04-01T00:43:14;12.1;80.3
78704;SHT31;68034;51.966;5.676;2023-04-01T00:51:25;12.1;80.5
78704;SHT31;68034;51.966;5.676;2023-04-01T00:58:57;12.1;80.4
78704;SHT31;68034;51.966;5.676;2023-04-01T01:01:37;12.1;80.4
78704;SHT31;68034;51.966;5.676;2023-04-01T01:04:07;12.1;80.5
78704;SHT31;68034;51.966;5.676;2023-04-01T01:07:18;12.1;80.6
78704;SHT31;68034;51.966;5.676;2023-04-01T01:14:19;12.1;80.8
78704;SHT31;68034;51.966;5.676;2023-04-01T01:19:01;12.1;80.8
78704;SHT31;68034;51.966;5.676;2023-04-01T01:21:56;12.1;80.9
78704;SHT31;68034;51.966;5.676;2023-04-01T01:24:55;12.1;80.8
78704;SHT31;68034;51.966;5.676;2023-04-01T01:27:35;12.1;80.6
78704;SHT31;68034;51.966;5.676;2023-04-01T01:31:06;12.1;80.5
78704;SHT31;68034;51.966;5.676;2023-04-01T01:36:06;12.1;80.3
78704;SHT31;68034;51.966;5.676;2023-04-01T01:38:48;12.1;79.9
78704;SHT31;68034;51.966;5.676;2023-04-01T01:41:26;12.0;79.5
78704;SHT31;68034;51.966;5.676;2023-04-01T01:46:11;12.0;79.5
78704;SHT31;68034;51.966;5.676;2023-04-01T01:48:58;12.0;79.3
78704;SHT31;68034;51.966;5.676;2023-04-01T01:51:44;12.0;79.4
78704;SHT31;68034;51.966;5.676;2023-04-01T01:55:35;11.9;79.1
78704;SHT31;68034;51.966;5.676;2023-04-01T01:58:18;11.9;79.2
78704;SHT31;68034;51.966;5.676;2023-04-01T02:01:37;11.9;79.4
78704;SHT31;68034;51.966;5.676;2023-04-01T02:04:14;11.9;79.5
78704;SHT31;68034;51.966;5.676;2023-04-01T02:07:02;11.9;79.8
78704;SHT31;68034;51.966;5.676;2023-04-01T02:09:38;11.9;80.0
78704;SHT31;68034;51.966;5.676;2023-04-01T02:12:24;11.9;80.1
78704;SHT31;68034;51.966;5.676;2023-04-01T02:15:00;11.9;80.2
78704;SHT31;68034;51.966;5.676;2023-04-01T02:17:39;11.8;80.3
78704;SHT31;68034;51.966;5.676;2023-04-01T02:20:14;11.8;80.3
78704;SHT31;68034;51.966;5.676;2023-04-01T02:22:49;11.8;80.4
78704;SHT31;68034;51.966;5.676;2023-04-01T02:25:27;11.8;80.3
78704;SHT31;68034;51.966;5.676;2023-04-01T02:27:58;11.8;80.6
78704;SHT31;68034;51.966;5.676;2023-04-01T02:30:33;11.8;80.7
78704;SHT31;68034;51.966;5.676;2023-04-01T02:33:05;11.8;80.8
78704;SHT31;68034;51.966;5.676;2023-04-01T02:35:36;11.7;80.8
78704;SHT31;68034;51.966;5.676;2023-04-01T02:38:08;11.7;80.8
78704;SHT31;68034;51.966;5.676;2023-04-01T02:40:46;11.7;80.8
78704;SHT31;68034;51.966;5.676;2023-04-01T02:43:16;11.7;80.9
78704;SHT31;68034;51.966;5.676;2023-04-01T02:45:50;11.7;81.0
78704;SHT31;68034;51.966;5.676;2023-04-01T02:48:40;11.7;81.0
78704;SHT31;68034;51.966;5.676;2023-04-01T02:51:19;11.6;81.0
78704;SHT31;68034;51.966;5.676;2023-04-01T02:54:07;11.6;81.0
78704;SHT31;68034;51.966;5.676;2023-04-01T02:56:49;11.6;81.1
78704;SHT31;68034;51.966;5.676;2023-04-01T02:59:25;11.6;81.3
78704;SHT31;68034;51.966;5.676;2023-04-01T03:01:55;11.6;81.4
78704;SHT31;68034;51.966;5.676;2023-04-01T03:04:27;11.5;81.5
78704;SHT31;68034;51.966;5.676;2023-04-01T03:07:14;11.5;81.4
78704;SHT31;68034;51.966;5.676;2023-04-01T03:09:50;11.5;81.5
78704;SHT31;68034;51.966;5.676;2023-04-01T03:12:26;11.5;81.3
78704;SHT31;68034;51.966;5.676;2023-04-01T03:15:03;11.5;81.3
78704;SHT31;68034;51.966;5.676;2023-04-01T03:17:58;11.5;81.4
78704;SHT31;68034;51.966;5.676;2023-04-01T03:20:43;11.5;81.5
78704;SHT31;68034;51.966;5.676;2023-04-01T03:23:38;11.5;81.5
78704;SHT31;68034;51.966;5.676;2023-04-01T03:26:10;11.5;81.7
78704;SHT31;68034;51.966;5.676;2023-04-01T03:28:47;11.4;81.6
78704;SHT31;68034;51.966;5.676;2023-04-01T03:31:19;11.4;81.7
78704;SHT31;68034;51.966;5.676;2023-04-01T03:33:55;11.4;81.7
78704;SHT31;68034;51.966;5.676;2023-04-01T03:36:33;11.4;81.6
78704;SHT31;68034;51.966;5.676;2023-04-01T03:39:17;11.4;81.6
78704;SHT31;68034;51.966;5.676;2023-04-01T03:41:53;11.4;81.6
78704;SHT31;68034;51.966;5.676;2023-04-01T03:45:16;11.4;81.6
78704;SHT31;68034;51.966;5.676;2023-04-01T03:47:46;11.4;81.7
78704;SHT31;68034;51.966;5.676;2023-04-01T03:50:40;11.4;81.7
78704;SHT31;68034;51.966;5.676;2023-04-01T03:53:12;11.4;81.7
78704;SHT31;68034;51.966;5.676;2023-04-01T03:55:44;11.4;81.7
78704;SHT31;68034;51.966;5.676;2023-04-01T03:58:18;11.4;81.7
78704;SHT31;68034;51.966;5.676;2023-04-01T04:00:50;11.4;81.7
78704;SHT31;68034;51.966;5.676;2023-04-01T04:03:32;11.3;81.9
78704;SHT31;68034;51.966;5.676;2023-04-01T04:06:28;11.4;81.7
78704;SHT31;68034;51.966;5.676;2023-04-01T04:09:15;11.4;81.7
78704;SHT31;68034;51.966;5.676;2023-04-01T04:12:26;11.3;81.9
78704;SHT31;68034;51.966;5.676;2023-04-01T04:15:08;11.3;82.0
78704;SHT31;68034;51.966;5.676;2023-04-01T04:19:01;11.3;81.9
78704;SHT31;68034;51.966;5.676;2023-04-01T04:21:55;11.3;82.0
78704;SHT31;68034;51.966;5.676;2023-04-01T04:24:51;11.4;81.8
78704;SHT31;68034;51.966;5.676;2023-04-01T04:27:44;11.4;81.9
78704;SHT31;68034;51.966;5.676;2023-04-01T04:30:44;11.4;82.0
78704;SHT31;68034;51.966;5.676;2023-04-01T04:37:25;11.4;82.1
78704;SHT31;68034;51.966;5.676;2023-04-01T04:40:07;11.4;82.1
78704;SHT31;68034;51.966;5.676;2023-04-01T04:44:33;11.4;82.2
78704;SHT31;68034;51.966;5.676;2023-04-01T04:49:12;11.4;82.2
78704;SHT31;68034;51.966;5.676;2023-04-01T04:52:14;11.4;82.2
78704;SHT31;68034;51.966;5.676;2023-04-01T04:56:10;11.4;82.3
78704;SHT31;68034;51.966;5.676;2023-04-01T04:59:34;11.4;82.3
78704;SHT31;68034;51.966;5.676;2023-04-01T05:02:42;11.5;82.1
78704;SHT31;68034;51.966;5.676;2023-04-01T05:07:56;11.5;82.1
78704;SHT31;68034;51.966;5.676;2023-04-01T05:10:49;11.5;82.0
78704;SHT31;68034;51.966;5.676;2023-04-01T05:19:07;11.6;81.9
78704;SHT31;68034;51.966;5.676;2023-04-01T05:22:37;11.6;81.8
78704;SHT31;68034;51.966;5.676;2023-04-01T05:27:13;11.7;81.7
78704;SHT31;68034;51.966;5.676;2023-04-01T05:41:41;11.8;81.7
78704;SHT31;68034;51.966;5.676;2023-04-01T05:50:46;11.9;81.6
78704;SHT31;68034;51.966;5.676;2023-04-01T05:53:34;12.0;81.2
78704;SHT31;68034;51.966;5.676;2023-04-01T06:02:13;12.0;81.0
78704;SHT31;68034;51.966;5.676;2023-04-01T06:05:13;12.0;81.0
78704;SHT31;68034;51.966;5.676;2023-04-01T06:07:43;12.0;81.2
78704;SHT31;68034;51.966;5.676;2023-04-01T06:10:18;12.0;81.0
78704;SHT31;68034;51.966;5.676;2023-04-01T06:17:21;12.1;80.9
78704;SHT31;68034;51.966;5.676;2023-04-01T06:20:11;12.1;80.9
78704;SHT31;68034;51.966;5.676;2023-04-01T06:24:49;12.1;80.9
78704;SHT31;68034;51.966;5.676;2023-04-01T06:27:53;12.1;81.1
78704;SHT31;68034;51.966;5.676;2023-04-01T06:30:39;12.1;81.2
78704;SHT31;68034;51.966;5.676;2023-04-01T06:33:52;12.1;81.2
78704;SHT31;68034;51.966;5.676;2023-04-01T06:37:48;12.1;81.3
78704;SHT31;68034;51.966;5.676;2023-04-01T06:41:47;12.1;81.4
78704;SHT31;68034;51.966;5.676;2023-04-01T06:44:59;12.1;81.6
78704;SHT31;68034;51.966;5.676;2023-04-01T06:48:37;12.1;81.5
78704;SHT31;68034;51.966;5.676;2023-04-01T06:51:25;12.2;81.2
78704;SHT31;68034;51.966;5.676;2023-04-01T06:54:06;12.2;81.2
78704;SHT31;68034;51.966;5.676;2023-04-01T06:56:42;12.2;81.2
78704;SHT31;68034;51.966;5.676;2023-04-01T06:59:17;12.2;81.2
78704;SHT31;68034;51.966;5.676;2023-04-01T07:01:53;12.2;81.2
78704;SHT31;68034;51.966;5.676;2023-04-01T07:04:32;12.2;81.2
78704;SHT31;68034;51.966;5.676;2023-04-01T07:07:12;12.2;81.0
78704;SHT31;68034;51.966;5.676;2023-04-01T07:09:51;12.2;81.0
78704;SHT31;68034;51.966;5.676;2023-04-01T07:12:34;12.2;80.9
78704;SHT31;68034;51.966;5.676;2023-04-01T07:15:22;12.2;80.8
78704;SHT31;68034;51.966;5.676;2023-04-01T07:18:03;12.2;81.0
78704;SHT31;68034;51.966;5.676;2023-04-01T07:20:37;12.2;81.2
78704;SHT31;68034;51.966;5.676;2023-04-01T07:23:15;12.2;81.2
78704;SHT31;68034;51.966;5.676;2023-04-01T07:25:56;12.2;81.3
78704;SHT31;68034;51.966;5.676;2023-04-01T07:28:31;12.2;81.3
78704;SHT31;68034;51.966;5.676;2023-04-01T07:31:09;12.2;81.5
78704;SHT31;68034;51.966;5.676;2023-04-01T07:33:45;12.3;81.6
78704;SHT31;68034;51.966;5.676;2023-04-01T07:36:22;12.3;81.6
78704;SHT31;68034;51.966;5.676;2023-04-01T07:39:06;12.3;81.4
78704;SHT31;68034;51.966;5.676;2023-04-01T07:41:51;12.3;81.3
78704;SHT31;68034;51.966;5.676;2023-04-01T07:44:42;12.3;81.5
78704;SHT31;68034;51.966;5.676;2023-04-01T07:47:38;12.3;81.5
78704;SHT31;68034;51.966;5.676;2023-04-01T07:50:20;12.3;81.6
78704;SHT31;68034;51.966;5.676;2023-04-01T07:53:11;12.3;81.6
78704;SHT31;68034;51.966;5.676;2023-04-01T07:56:03;12.3;81.8
78704;SHT31;68034;51.966;5.676;2023-04-01T07:58:44;12.3;81.8
78704;SHT31;68034;51.966;5.676;2023-04-01T08:01:25;12.3;81.7
78704;SHT31;68034;51.966;5.676;2023-04-01T08:06:27;12.3;81.8
78704;SHT31;68034;51.966;5.676;2023-04-01T08:09:05;12.3;81.7
78704;SHT31;68034;51.966;5.676;2023-04-01T08:11:59;12.3;81.7
78704;SHT31;68034;51.966;5.676;2023-04-01T08:14:39;12.4;81.6
78704;SHT31;68034;51.966;5.676;2023-04-01T08:17:19;12.4;81.8
78704;SHT31;68034;51.966;5.676;2023-04-01T08:20:07;12.4;81.6
78704;SHT31;68034;51.966;5.676;2023-04-01T08:22:42;12.4;81.6
78704;SHT31;68034;51.966;5.676;2023-04-01T08:25:20;12.4;81.8
78704;SHT31;68034;51.966;5.676;2023-04-01T08:28:02;12.4;81.9
78704;SHT31;68034;51.966;5.676;2023-04-01T08:30:43;12.4;81.9
78704;SHT31;68034;51.966;5.676;2023-04-01T08:33:18;12.4;81.9
78704;SHT31;68034;51.966;5.676;2023-04-01T08:35:53;12.5;81.8
78704;SHT31;68034;51.966;5.676;2023-04-01T08:38:37;12.5;81.7
78704;SHT31;68034;51.966;5.676;2023-04-01T08:43:11;12.5;81.7
78704;SHT31;68034;51.966;5.676;2023-04-01T08:45:59;12.5;81.7
78704;SHT31;68034;51.966;5.676;2023-04-01T08:48:51;12.5;81.8
78704;SHT31;68034;51.966;5.676;2023-04-01T08:52:27;12.5;81.7
78704;SHT31;68034;51.966;5.676;2023-04-01T08:55:25;12.6;81.8
78704;SHT31;68034;51.966;5.676;2023-04-01T09:00:31;12.6;82.0
78704;SHT31;68034;51.966;5.676;2023-04-01T09:03:31;12.6;82.1
78704;SHT31;68034;51.966;5.676;2023-04-01T09:06:17;12.6;82.1
78704;SHT31;68034;51.966;5.676;2023-04-01T09:10:30;12.6;82.0
78704;SHT31;68034;51.966;5.676;2023-04-01T09:19:59;12.6;81.6
78704;SHT31;68034;51.966;5.676;2023-04-01T09:22:45;12.6;81.8
78704;SHT31;68034;51.966;5.676;2023-04-01T09:25:41;12.7;82.2
78704;SHT31;68034;51.966;5.676;2023-04-01T09:28:27;12.7;82.5
78704;SHT31;68034;51.966;5.676;2023-04-01T09:31:26;12.7;82.5
78704;SHT31;68034;51.966;5.676;2023-04-01T09:36:11;12.8;82.3
78704;SHT31;68034;51.966;5.676;2023-04-01T09:39:11;12.8;82.3
78704;SHT31;68034;51.966;5.676;2023-04-01T09:41:56;12.9;82.1
78704;SHT31;68034;51.966;5.676;2023-04-01T09:44:44;12.9;81.9
78704;SHT31;68034;51.966;5.676;2023-04-01T09:47:41;12.9;81.5
78704;SHT31;68034;51.966;5.676;2023-04-01T09:52:17;13.0;81.4
78704;SHT31;68034;51.966;5.676;2023-04-01T09:55:12;13.0;81.7
78704;SHT31;68034;51.966;5.676;2023-04-01T10:00:13;13.0;82.0
78704;SHT31;68034;51.966;5.676;2023-04-01T10:10:50;13.2;82.4
78704;SHT31;68034;51.966;5.676;2023-04-01T10:13:50;13.3;82.8
78704;SHT31;68034;51.966;5.676;2023-04-01T10:20:30;13.5;84.2
78704;SHT31;68034;51.966;5.676;2023-04-01T10:23:35;13.6;83.0
78704;SHT31;68034;51.966;5.676;2023-04-01T10:26:32;13.7;81.4
78704;SHT31;68034;51.966;5.676;2023-04-01T10:29:27;13.7;81.4
78704;SHT31;68034;51.966;5.676;2023-04-01T10:32:27;13.8;82.0
78704;SHT31;68034;51.966;5.676;2023-04-01T10:40:23;14.0;83.5
78704;SHT31;68034;51.966;5.676;2023-04-01T10:54:40;14.4;78.6
78704;SHT31;68034;51.966;5.676;2023-04-01T11:05:59;14.5;79.0
78704;SHT31;68034;51.966;5.676;2023-04-01T11:09:22;14.6;79.0
78704;SHT31;68034;51.966;5.676;2023-04-01T11:12:23;14.6;77.8
78704;SHT31;68034;51.966;5.676;2023-04-01T11:15:26;14.6;77.8
78704;SHT31;68034;51.966;5.676;2023-04-01T11:23:44;14.6;78.6
78704;SHT31;68034;51.966;5.676;2023-04-01T11:26:38;14.6;79.1
78704;SHT31;68034;51.966;5.676;2023-04-01T11:29:34;14.6;79.3
78704;SHT31;68034;51.966;5.676;2023-04-01T11:32:21;14.6;79.4
78704;SHT31;68034;51.966;5.676;2023-04-01T11:35:03;14.6;79.7
78704;SHT31;68034;51.966;5.676;2023-04-01T11:37:45;14.6;79.9
78704;SHT31;68034;51.966;5.676;2023-04-01T11:40:31;14.6;79.8
78704;SHT31;68034;51.966;5.676;2023-04-01T11:43:11;14.6;79.8
78704;SHT31;68034;51.966;5.676;2023-04-01T11:45:50;14.6;80.2
78704;SHT31;68034;51.966;5.676;2023-04-01T11:48:42;14.7;79.6
78704;SHT31;68034;51.966;5.676;2023-04-01T11:55:46;14.7;78.6
78704;SHT31;68034;51.966;5.676;2023-04-01T11:59:00;14.7;77.8
78704;SHT31;68034;51.966;5.676;2023-04-01T12:01:37;14.7;77.3
78704;SHT31;68034;51.966;5.676;2023-04-01T12:05:51;14.7;78.0
78704;SHT31;68034;51.966;5.676;2023-04-01T12:08:35;14.6;78.6
78704;SHT31;68034;51.966;5.676;2023-04-01T12:11:25;14.6;78.7
78704;SHT31;68034;51.966;5.676;2023-04-01T12:14:25;14.6;79.1
78704;SHT31;68034;51.966;5.676;2023-04-01T12:17:07;14.6;79.6
78704;SHT31;68034;51.966;5.676;2023-04-01T12:19:51;14.6;79.4
78704;SHT31;68034;51.966;5.676;2023-04-01T12:22:43;14.6;79.8
78704;SHT31;68034;51.966;5.676;2023-04-01T12:27:42;14.6;79.6
78704;SHT31;68034;51.966;5.676;2023-04-01T12:30:24;14.6;79.8
78704;SHT31;68034;51.966;5.676;2023-04-01T12:33:56;14.6;80.1
78704;SHT31;68034;51.966;5.676;2023-04-01T12:37:32;14.6;78.4
78704;SHT31;68034;51.966;5.676;2023-04-01T12:40:35;14.7;79.1
78704;SHT31;68034;51.966;5.676;2023-04-01T12:43:28;14.7;78.5
78704;SHT31;68034;51.966;5.676;2023-04-01T12:46:19;14.6;78.2
78704;SHT31;68034;51.966;5.676;2023-04-01T12:49:48;14.6;78.2
78704;SHT31;68034;51.966;5.676;2023-04-01T12:53:10;14.6;78.6
78704;SHT31;68034;51.966;5.676;2023-04-01T12:55:45;14.6;78.9
78704;SHT31;68034;51.966;5.676;2023-04-01T13:02:03;14.6;79.1
78704;SHT31;68034;51.966;5.676;2023-04-01T13:05:34;14.6;79.6
78704;SHT31;68034;51.966;5.676;2023-04-01T13:08:29;14.6;79.9
78704;SHT31;68034;51.966;5.676;2023-04-01T13:11:09;14.7;79.5
78704;SHT31;68034;51.966;5.676;2023-04-01T13:15:31;14.7;79.7
78704;SHT31;68034;51.966;5.676;2023-04-01T13:18:17;14.7;79.7
78704;SHT31;68034;51.966;5.676;2023-04-01T13:21:11;14.7;79.2
78704;SHT31;68034;51.966;5.676;2023-04-01T13:24:05;14.7;79.2
78704;SHT31;68034;51.966;5.676;2023-04-01T13:26:48;14.7;79.1
78704;SHT31;68034;51.966;5.676;2023-04-01T13:29:25;14.7;78.7
78704;SHT31;68034;51.966;5.676;2023-04-01T13:32:17;14.7;78.3
78704;SHT31;68034;51.966;5.676;2023-04-01T13:35:10;14.7;78.4
78704;SHT31;68034;51.966;5.676;2023-04-01T13:37:58;14.7;78.4
78704;SHT31;68034;51.966;5.676;2023-04-01T13:40:36;14.6;78.7
78704;SHT31;68034;51.966;5.676;2023-04-01T13:43:18;14.6;78.8
78704;SHT31;68034;51.966;5.676;2023-04-01T13:51:18;14.6;78.9
78704;SHT31;68034;51.966;5.676;2023-04-01T13:54:37;14.6;78.6
78704;SHT31;68034;51.966;5.676;2023-04-01T13:57:27;14.6;79.4
78704;SHT31;68034;51.966;5.676;2023-04-01T14:02:28;14.6;79.2
78704;SHT31;68034;51.966;5.676;2023-04-01T14:06:09;14.5;79.1
78704;SHT31;68034;51.966;5.676;2023-04-01T14:10:57;14.5;79.1
78704;SHT31;68034;51.966;5.676;2023-04-01T14:19:07;14.5;79.0
78704;SHT31;68034;51.966;5.676;2023-04-01T14:21:58;14.5;79.5
78704;SHT31;68034;51.966;5.676;2023-04-01T14:26:39;14.5;79.6
78704;SHT31;68034;51.966;5.676;2023-04-01T14:29:29;14.5;79.9
78704;SHT31;68034;51.966;5.676;2023-04-01T14:32:09;14.5;79.7
78704;SHT31;68034;51.966;5.676;2023-04-01T14:35:27;14.5;79.7
78704;SHT31;68034;51.966;5.676;2023-04-01T14:38:20;14.5;78.3
78704;SHT31;68034;51.966;5.676;2023-04-01T14:40:56;14.5;78.0
78704;SHT31;68034;51.966;5.676;2023-04-01T14:43:58;14.5;78.0
78704;SHT31;68034;51.966;5.676;2023-04-01T14:48:13;14.5;78.0
78704;SHT31;68034;51.966;5.676;2023-04-01T14:50:47;14.4;78.5
78704;SHT31;68034;51.966;5.676;2023-04-01T14:53:26;14.4;78.9
78704;SHT31;68034;51.966;5.676;2023-04-01T14:58:13;14.4;79.1
78704;SHT31;68034;51.966;5.676;2023-04-01T15:01:25;14.4;79.0
78704;SHT31;68034;51.966;5.676;2023-04-01T15:04:06;14.4;78.9
78704;SHT31;68034;51.966;5.676;2023-04-01T15:06:53;14.4;79.6
78704;SHT31;68034;51.966;5.676;2023-04-01T15:09:32;14.4;79.2
78704;SHT31;68034;51.966;5.676;2023-04-01T15:12:18;14.4;79.1
78704;SHT31;68034;51.966;5.676;2023-04-01T15:15:14;14.5;79.5
78704;SHT31;68034;51.966;5.676;2023-04-01T15:18:02;14.5;79.0
78704;SHT31;68034;51.966;5.676;2023-04-01T15:25:36;14.4;79.6
78704;SHT31;68034;51.966;5.676;2023-04-01T15:28:23;14.4;79.5
78704;SHT31;68034;51.966;5.676;2023-04-01T15:31:07;14.4;79.2
78704;SHT31;68034;51.966;5.676;2023-04-01T15:33:50;14.4;80.1
78704;SHT31;68034;51.966;5.676;2023-04-01T15:36:30;14.4;79.6
78704;SHT31;68034;51.966;5.676;2023-04-01T15:39:12;14.4;79.7
78704;SHT31;68034;51.966;5.676;2023-04-01T15:42:06;14.4;79.0
78704;SHT31;68034;51.966;5.676;2023-04-01T15:44:50;14.3;78.8
78704;SHT31;68034;51.966;5.676;2023-04-01T15:47:46;14.3;78.7
78704;SHT31;68034;51.966;5.676;2023-04-01T15:50:28;14.2;78.7
78704;SHT31;68034;51.966;5.676;2023-04-01T15:53:21;14.2;78.8
78704;SHT31;68034;51.966;5.676;2023-04-01T15:55:57;14.2;79.5
78704;SHT31;68034;51.966;5.676;2023-04-01T15:58:45;14.1;79.6
78704;SHT31;68034;51.966;5.676;2023-04-01T16:01:38;14.1;78.6
78704;SHT31;68034;51.966;5.676;2023-04-01T16:04:31;14.1;79.4
78704;SHT31;68034;51.966;5.676;2023-04-01T16:07:10;14.1;79.6
78704;SHT31;68034;51.966;5.676;2023-04-01T16:10:02;14.1;80.2
78704;SHT31;68034;51.966;5.676;2023-04-01T16:12:47;14.1;79.3
78704;SHT31;68034;51.966;5.676;2023-04-01T16:15:26;14.1;79.4
78704;SHT31;68034;51.966;5.676;2023-04-01T16:19:37;14.1;78.7
78704;SHT31;68034;51.966;5.676;2023-04-01T16:22:12;14.0;77.8
78704;SHT31;68034;51.966;5.676;2023-04-01T16:24:48;14.0;78.7
78704;SHT31;68034;51.966;5.676;2023-04-01T16:27:27;14.0;78.7
78704;SHT31;68034;51.966;5.676;2023-04-01T16:30:03;14.0;78.5
78704;SHT31;68034;51.966;5.676;2023-04-01T16:32:49;14.0;78.4
78704;SHT31;68034;51.966;5.676;2023-04-01T16:35:33;14.0;78.3
78704;SHT31;68034;51.966;5.676;2023-04-01T16:38:17;14.0;78.6
78704;SHT31;68034;51.966;5.676;2023-04-01T16:41:10;14.0;77.6
78704;SHT31;68034;51.966;5.676;2023-04-01T16:43:49;13.9;78.2
78704;SHT31;68034;51.966;5.676;2023-04-01T16:46:41;13.9;78.8
78704;SHT31;68034;51.966;5.676;2023-04-01T16:52:17;13.9;78.5
78704;SHT31;68034;51.966;5.676;2023-04-01T16:55:01;13.9;79.0
78704;SHT31;68034;51.966;5.676;2023-04-01T16:57:50;13.9;78.1
78704;SHT31;68034;51.966;5.676;2023-04-01T17:00:27;13.8;78.1
78704;SHT31;68034;51.966;5.676;2023-04-01T17:03:08;13.8;78.2
78704;SHT31;68034;51.966;5.676;2023-04-01T17:05:55;13.8;78.2
78704;SHT31;68034;51.966;5.676;2023-04-01T17:08:42;13.8;77.3
78704;SHT31;68034;51.966;5.676;2023-04-01T17:11:19;13.7;78.4
78704;SHT31;68034;51.966;5.676;2023-04-01T17:14:13;13.7;78.2
78704;SHT31;68034;51.966;5.676;2023-04-01T17:17:06;13.7;78.0
78704;SHT31;68034;51.966;5.676;2023-04-01T17:19:45;13.6;78.0
78704;SHT31;68034;51.966;5.676;2023-04-01T17:22:37;13.6;78.0
78704;SHT31;68034;51.966;5.676;2023-04-01T17:25:38;13.6;78.4
78704;SHT31;68034;51.966;5.676;2023-04-01T17:29:39;13.6;77.7
78704;SHT31;68034;51.966;5.676;2023-04-01T17:32:31;13.5;77.9
78704;SHT31;68034;51.966;5.676;2023-04-01T17:36:59;13.5;77.9
78704;SHT31;68034;51.966;5.676;2023-04-01T17:40:37;13.5;77.9
78704;SHT31;68034;51.966;5.676;2023-04-01T17:43:24;13.4;77.9
78704;SHT31;68034;51.966;5.676;2023-04-01T17:46:08;13.4;77.6
78704;SHT31;68034;51.966;5.676;2023-04-01T17:49:01;13.4;76.2
78704;SHT31;68034;51.966;5.676;2023-04-01T17:51:41;13.4;77.2
78704;SHT31;68034;51.966;5.676;2023-04-01T17:54:27;13.3;77.6
78704;SHT31;68034;51.966;5.676;2023-04-01T17:57:14;13.3;76.8
78704;SHT31;68034;51.966;5.676;2023-04-01T18:00:19;13.3;76.6
78704;SHT31;68034;51.966;5.676;2023-04-01T18:03:03;13.3;75.9
78704;SHT31;68034;51.966;5.676;2023-04-01T18:05:41;13.2;77.3
78704;SHT31;68034;51.966;5.676;2023-04-01T18:08:40;13.2;76.8
78704;SHT31;68034;51.966;5.676;2023-04-01T18:12:04;13.2;76.8
78704;SHT31;68034;51.966;5.676;2023-04-01T18:15:49;13.2;76.2
78704;SHT31;68034;51.966;5.676;2023-04-01T18:18:36;13.1;76.6
78704;SHT31;68034;51.966;5.676;2023-04-01T18:27:00;13.1;75.8
78704;SHT31;68034;51.966;5.676;2023-04-01T18:33:08;13.0;76.0
78704;SHT31;68034;51.966;5.676;2023-04-01T18:35:58;13.0;75.8
78704;SHT31;68034;51.966;5.676;2023-04-01T18:39:02;12.9;75.6
78704;SHT31;68034;51.966;5.676;2023-04-01T18:55:28;12.8;76.7
78704;SHT31;68034;51.966;5.676;2023-04-01T19:00:47;12.8;75.9
78704;SHT31;68034;51.966;5.676;2023-04-01T22:04:19;13.0;65.6
78704;SHT31;68034;51.966;5.676;2023-04-01T22:07:02;12.8;65.2
78704;SHT31;68034;51.966;5.676;2023-04-01T22:09:51;12.6;66.0
78704;SHT31;68034;51.966;5.676;2023-04-01T22:12:38;12.4;67.1
78704;SHT31;68034;51.966;5.676;2023-04-01T22:15:40;12.2;68.2
78704;SHT31;68034;51.966;5.676;2023-04-01T22:18:40;12.0;68.3
78704;SHT31;68034;51.966;5.676;2023-04-01T22:21:41;11.9;68.9
78704;SHT31;68034;51.966;5.676;2023-04-01T22:34:55;11.4;70.0
78704;SHT31;68034;51.966;5.676;2023-04-01T22:37:47;11.4;70.2
78704;SHT31;68034;51.966;5.676;2023-04-01T22:40:30;11.3;70.6
78704;SHT31;68034;51.966;5.676;2023-04-01T22:43:08;11.3;69.6
78704;SHT31;68034;51.966;5.676;2023-04-01T22:47:18;11.3;69.5
78704;SHT31;68034;51.966;5.676;2023-04-01T22:50:03;11.2;70.8
78704;SHT31;68034;51.966;5.676;2023-04-01T22:53:06;11.2;70.1
78704;SHT31;68034;51.966;5.676;2023-04-01T22:56:40;11.1;70.1
78704;SHT31;68034;51.966;5.676;2023-04-01T22:59:37;11.1;70.3
78704;SHT31;68034;51.966;5.676;2023-04-01T23:03:28;11.1;71.1
78704;SHT31;68034;51.966;5.676;2023-04-01T23:06:08;11.1;70.2
78704;SHT31;68034;51.966;5.676;2023-04-01T23:08:57;11.1;70.3
78704;SHT31;68034;51.966;5.676;2023-04-01T23:13:56;11.1;69.9
78704;SHT31;68034;51.966;5.676;2023-04-01T23:16:41;11.1;71.1
78704;SHT31;68034;51.966;5.676;2023-04-01T23:19:44;11.1;70.4
78704;SHT31;68034;51.966;5.676;2023-04-01T23:22:46;11.1;70.2
78704;SHT31;68034;51.966;5.676;2023-04-01T23:25:51;11.1;69.8
78704;SHT31;68034;51.966;5.676;2023-04-01T23:28:48;11.1;71.2
78704;SHT31;68034;51.966;5.676;2023-04-01T23:31:40;11.1;70.7
78704;SHT31;68034;51.966;5.676;2023-04-01T23:34:47;11.1;70.2
78704;SHT31;68034;51.966;5.676;2023-04-01T23:37:29;11.1;69.8
78704;SHT31;68034;51.966;5.676;2023-04-01T23:40:17;11.0;71.2
78704;SHT31;68034;51.966;5.676;2023-04-01T23:42:55;11.0;69.9
78704;SHT31;68034;51.966;5.676;2023-04-01T23:45:28;11.0;68.9
78704;SHT31;68034;51.966;5.676;2023-04-01T23:47:58;11.0;68.8
78704;SHT31;68034;51.966;5.676;2023-04-01T23:50:35;10.9;70.0
78704;SHT31;68034;51.966;5.676;2023-04-01T23:53:19;10.9;69.6
78704;SHT31;68034;51.966;5.676;2023-04-01T23:55:58;10.9;69.4
78704;SHT31;68034;51.966;5.676;2023-04-01T23:58:43;10.8;69.9
